• Join FlightAware (Why Join?)
  • Login
  • US Flag 
08:28PM EDT


 

Airport Tracker/Info


-or-


 

Live Flight TrackerFlight Track Log ✈ UAL582 ✈ 22-Apr-2013 ✈ CYYZ - KORD

Flight Track Log - Related Links

Times and Time Zones

All times are in EDT time to prevent confusion due to time zone crossing. See the UAL582 flight status page for this flight to view local times or setup timezone preferences in your user account.

Time Position Orientation Groundspeed Altitude Reporting Facility
EDT Latitude Longitude Course Direction KTS MPH feet Rate Location/Type
06:06PM 43.6833 -79.6167 270° West 40 46 1,400  Level Toronto Center
06:07PM 43.7333 -79.5833 26° Northeast 200 230 3,300 2,040 Climbing Toronto Center
06:08PM 43.7833 -79.5833 360° North 270 311 5,500 1,800 Climbing Toronto Center
06:09PM 43.7010 -79.9781 277° West  Level FlightAware Approximate
06:09PM 43.8167 -79.6833 295° West 260 299 7,000  Level Toronto Center
06:10PM 43.7111 -80.0997 277° West  Level FlightAware Approximate
06:11PM 43.7171 -80.2217 277° West  Level FlightAware Approximate
06:12PM 43.7297 -80.3594 277° West  Level FlightAware Approximate
06:12PM 43.7833 -80.0500 263° West 380 437 14,400  Level Toronto Center
06:13PM 43.7334 -80.4978 270° West  Level FlightAware Approximate
06:13PM 43.7667 -80.2167 262° West 400 460 16,700  Level Toronto Center
06:14PM 43.7500 -80.3500 260° West 410 472 18,400 1,680 Climbing Toronto Center
06:15PM 43.7500 -80.5333 270° West 430 495 20,100 1,740 Climbing Toronto Center
06:16PM 43.7167 -80.7000 255° West 450 518 21,900 1,620 Climbing Toronto Center
06:17PM 43.6500 -80.8500 238° Southwest 450 518 23,400 1,380 Climbing Toronto Center
06:18PM 43.6167 -81.0333 256° West 460 529 24,700 1,500 Climbing Toronto Center
06:19PM 43.5833 -81.2000 255° West 460 529 26,400 1,560 Climbing Toronto Center
06:20PM 43.5500 -81.3667 255° West 450 518 27,900 1,440 Climbing Toronto Center
06:21PM 43.5167 -81.5167 253° West 450 518 29,300 1,440 Climbing Toronto Center
06:22PM 43.4833 -81.6833 255° West 450 518 30,800 1,800 Climbing Toronto Center
06:23PM 43.4500 -81.8667 256° West 440 506 32,900 1,560 Climbing Toronto Center
06:24PM 43.4000 -82.0000 243° Southwest 430 495 34,000 540 Climbing Toronto Center
06:25PM 43.3894 -82.1486 264° West 435 501 34,000  Level Cleveland Center
06:26PM 43.3539 -82.2992 252° West 430 495 34,100  Climbing Cleveland Center
06:27PM 43.3225 -82.4553 255° West 430 495 34,100 -60 Level Cleveland Center
06:28PM 43.2925 -82.6139 255° West 425 489 34,000 -120 Descending Cleveland Center
06:29PM 43.2606 -82.7697 254° West 425 489 33,900 -600 Descending Cleveland Center
06:30PM 43.2283 -82.9253 254° West 425 489 32,900 -1,020 Descending Cleveland Center
06:31PM 43.1981 -83.0808 255° West 430 495 31,900 -960 Descending Cleveland Center
06:32PM 43.1653 -83.2389 254° West 430 495 31,000 -900 Descending Cleveland Center
06:33PM 43.1325 -83.3967 254° West 436 502 30,200 -540 Descending Cleveland Center
06:34PM 43.0992 -83.5603 254° West 436 502 30,000 -120 Descending Cleveland Center
06:35PM 43.0658 -83.7206 254° West 436 502 30,000  Level Cleveland Center
06:36PM 43.0319 -83.8836 254° West 436 502 30,000  Level Cleveland Center
06:37PM 42.9981 -84.0439 254° West 436 502 30,000 -240 Level Cleveland Center
06:38PM 42.9619 -84.2064 253° West 441 507 29,600 -780 Descending Cleveland Center
06:40PM 42.9164 -84.4267 254° West 428 493 28,100 -600 Descending Chicago Center
06:41PM 42.8844 -84.5800 254° West 424 488 28,100 -60 Level Chicago Center
06:42PM 42.8642 -84.7736 262° West 433 498 28,000 -60 Descending Chicago Center
06:43PM 42.8472 -84.9331 262° West 428 493 28,000 -60 Level Chicago Center
06:44PM 42.8297 -85.0942 262° West 429 494 27,900 -540 Descending Chicago Center
06:45PM 42.8128 -85.2544 262° West 429 494 26,900 -960 Descending Chicago Center
06:46PM 42.7953 -85.4172 262° West 434 499 25,900 -1,020 Descending Chicago Center
06:47PM 42.7725 -85.5756 259° West 428 493 24,900 -1,020 Descending Chicago Center
06:48PM 42.7431 -85.7344 256° West 429 494 23,900 -1,020 Descending Chicago Center
06:49PM 42.7156 -85.8933 257° West 429 494 22,900 -1,080 Descending Chicago Center
06:50PM 42.6814 -86.0767 256° West 416 479 21,700 -1,320 Descending Chicago Center
06:51PM 42.6542 -86.2269 256° West 410 472 20,200 -840 Descending Chicago Center
06:52PM 42.6256 -86.3736 255° West 403 464 20,000 -120 Descending Chicago Center
06:53PM 42.5972 -86.5225 256° West 405 466 20,000 -780 Level Chicago Center
06:54PM 42.5706 -86.6667 256° West 398 458 18,500 -2,100 Descending Chicago Center
06:55PM 42.5400 -86.8078 254° West 392 451 15,700 -2,760 Descending Chicago Center
06:56PM 42.5031 -86.9392 249° West 375 432 12,900 -2,760 Descending Chicago Center
06:57PM 42.4611 -87.0878 249° West 354 407 10,000 -1,500 Descending Chicago Center
06:58PM 42.4325 -87.1983 251° West 314 361 9,900 -540 Descending Chicago Center
06:59PM 42.4058 -87.2897 248° West 267 307 9,000 -840 Descending Chicago Center
07:00PM 42.3686 -87.3781 240° Southwest 270 311 8,200 -840 Descending Chicago Center
07:01PM 42.3311 -87.4628 239° Southwest 261 300 7,300 -1,140 Descending Chicago Center
07:02PM 42.2917 -87.5572 241° Southwest 261 300 5,900 -1,140 Descending Chicago Center
07:03PM 42.2419 -87.6244 225° Southwest 258 297 5,000 -480 Descending Chicago Center
07:04PM 42.1894 -87.6850 221° Southwest 253 291 5,000 -420 Level Chicago Center
07:05PM 42.1408 -87.7367 218° Southwest 232 267 4,200 -1,200 Descending Chicago Center
07:06PM 42.1167 -87.7667 223° Southwest 217 250 3,200 -1,320 Descending Chicago TRACON
07:07PM 42.0667 -87.8167 217° Southwest 183 211 2,300 -900 Descending Chicago TRACON